Time;durP1;ratioP1;P1;durP2;ratioP2;P2;SDS_P1;SDS_P2;PMS_P1;PMS_P2;Temp;Humidity;BMP_temperature;BMP_pressure;BME280_temperature;BME280_humidity;BME280_pressure;Samples;Min_cycle;Max_cycle;Signal;HPM_P1;HPM_P2
2023/04/30 00:02:00;;;;;;;11.30;3.90;;;6.20;99.90;;;;;;4846311;29;20038;-86
2023/04/30 00:04:26;;;;;;;7.97;3.15;;;6.30;99.90;;;;;;4846366;29;20491;-86
2023/04/30 00:06:54;;;;;;;10.27;3.80;;;6.20;99.90;;;;;;4861119;29;20559;-86
2023/04/30 00:09:21;;;;;;;13.30;3.78;;;6.10;99.90;;;;;;4876662;29;20088;-85
2023/04/30 00:11:47;;;;;;;9.93;3.92;;;6.10;99.90;;;;;;4879613;29;20610;-86
2023/04/30 00:14:14;;;;;;;7.45;3.90;;;6.00;99.90;;;;;;4864634;29;20068;-86
2023/04/30 00:16:41;;;;;;;9.95;3.75;;;5.90;99.90;;;;;;4864401;29;20052;-86
2023/04/30 00:19:08;;;;;;;9.43;4.00;;;5.90;99.90;;;;;;4864477;29;20046;-86
2023/04/30 00:21:35;;;;;;;7.85;3.55;;;5.90;99.90;;;;;;4864485;29;20060;-86
2023/04/30 00:24:02;;;;;;;7.95;3.80;;;5.90;99.90;;;;;;4879391;29;20422;-86
2023/04/30 00:26:29;;;;;;;9.50;3.70;;;5.80;99.90;;;;;;4880135;29;20085;-86
2023/04/30 00:28:56;;;;;;;10.05;3.65;;;5.80;99.90;;;;;;4863830;29;20137;-86
2023/04/30 00:31:22;;;;;;;8.07;4.15;;;5.70;99.90;;;;;;4864081;29;20045;-86
2023/04/30 00:33:49;;;;;;;8.40;3.85;;;5.70;99.90;;;;;;4879324;29;20105;-86
2023/04/30 00:36:16;;;;;;;8.93;3.85;;;5.60;99.90;;;;;;4863910;29;20044;-86
2023/04/30 00:38:42;;;;;;;6.85;3.55;;;5.60;99.90;;;;;;4864026;29;20049;-86
2023/04/30 00:41:09;;;;;;;6.97;3.80;;;5.60;99.90;;;;;;4848909;29;20059;-86
2023/04/30 00:43:36;;;;;;;11.35;4.22;;;5.50;99.90;;;;;;4864048;29;20046;-86
2023/04/30 00:46:04;;;;;;;8.32;4.18;;;5.50;99.90;;;;;;4848936;29;20042;-87
2023/04/30 00:48:30;;;;;;;8.55;3.88;;;5.50;99.90;;;;;;4863954;29;20102;-86
2023/04/30 00:50:57;;;;;;;9.30;4.53;;;5.40;99.90;;;;;;4848555;29;20487;-85
2023/04/30 00:53:25;;;;;;;9.45;4.45;;;5.40;99.90;;;;;;4863901;29;20052;-86
2023/04/30 00:55:53;;;;;;;8.00;4.55;;;5.40;99.90;;;;;;4848907;29;20045;-86
2023/04/30 00:58:20;;;;;;;9.07;4.35;;;5.30;99.90;;;;;;4848247;29;20106;-86
2023/04/30 01:00:47;;;;;;;9.95;4.80;;;5.30;99.90;;;;;;4845417;29;20049;-85
2023/04/30 01:03:14;;;;;;;12.27;4.82;;;5.30;99.90;;;;;;4845531;29;20745;-86
2023/04/30 01:05:41;;;;;;;9.13;4.72;;;5.30;99.90;;;;;;4860552;29;20423;-86
2023/04/30 01:08:09;;;;;;;12.65;4.95;;;5.30;99.90;;;;;;4845045;29;20046;-86
2023/04/30 01:10:53;;;;;;;11.82;5.07;;;5.30;99.90;;;;;;4848633;29;20060;-86
2023/04/30 01:13:53;;;;;;;12.55;4.95;;;5.20;99.90;;;;;;4878684;29;20152;-86
2023/04/30 01:16:25;;;;;;;8.10;4.43;;;5.20;99.90;;;;;;4851406;29;20809;-86
2023/04/30 01:19:04;;;;;;;12.02;5.57;;;5.20;99.90;;;;;;4882426;29;20049;-86
2023/04/30 01:21:32;;;;;;;10.32;4.72;;;5.10;99.90;;;;;;4885300;29;20049;-86
2023/04/30 01:24:17;;;;;;;14.32;5.22;;;5.10;99.90;;;;;;4876771;29;20536;-86
2023/04/30 01:27:17;;;;;;;8.82;4.05;;;5.10;99.90;;;;;;4876710;29;20046;-86
2023/04/30 01:29:44;;;;;;;15.43;4.60;;;5.10;99.90;;;;;;4885376;29;20049;-86
2023/04/30 01:32:11;;;;;;;9.85;4.25;;;5.00;99.90;;;;;;4865837;29;20051;-86
2023/04/30 01:34:38;;;;;;;9.55;4.72;;;5.00;99.90;;;;;;4857790;29;20051;-86
2023/04/30 01:37:23;;;;;;;9.10;4.45;;;5.00;99.90;;;;;;4877947;29;20460;-86
2023/04/30 01:39:59;;;;;;;8.70;4.45;;;4.90;99.90;;;;;;4878626;29;20041;-86
2023/04/30 01:42:48;;;;;;;9.85;4.82;;;4.90;99.90;;;;;;4878372;29;20770;-86
2023/04/30 01:45:15;;;;;;;10.52;4.43;;;4.90;99.90;;;;;;4879968;29;20041;-86
2023/04/30 01:47:56;;;;;;;9.05;4.20;;;4.90;99.90;;;;;;4878078;29;20507;-86
2023/04/30 01:50:38;;;;;;;11.20;4.47;;;4.80;99.90;;;;;;4878077;29;20832;-86
2023/04/30 01:53:12;;;;;;;9.15;4.35;;;4.80;99.90;;;;;;4878305;29;20045;-86
2023/04/30 01:55:48;;;;;;;7.55;4.32;;;4.80;99.90;;;;;;4877716;29;20525;-86
2023/04/30 01:58:15;;;;;;;;;;;4.80;99.90;;;;;;4878764;29;20052;-86
2023/04/30 02:00:42;;;;;;;11.38;4.38;;;4.80;99.90;;;;;;4862869;29;19924;-86
2023/04/30 02:03:08;;;;;;;16.30;4.93;;;4.80;99.90;;;;;;4862285;29;20063;-86
2023/04/30 02:05:35;;;;;;;9.90;4.28;;;4.70;99.90;;;;;;4859523;29;20035;-86
2023/04/30 02:08:02;;;;;;;12.55;4.63;;;4.70;99.90;;;;;;4844135;29;20115;-86
2023/04/30 02:10:29;;;;;;;11.05;4.35;;;4.70;99.90;;;;;;4843333;29;20034;-86
2023/04/30 02:12:56;;;;;;;13.68;4.60;;;4.60;99.90;;;;;;4844312;29;20073;-86
2023/04/30 02:15:23;;;;;;;9.77;4.70;;;4.60;99.90;;;;;;4859267;29;20045;-86
2023/04/30 02:17:50;;;;;;;9.07;4.55;;;4.60;99.90;;;;;;4862429;29;20050;-86
2023/04/30 02:20:17;;;;;;;10.27;4.82;;;4.60;99.90;;;;;;4892505;29;20051;-87
2023/04/30 02:22:43;;;;;;;9.80;4.30;;;4.60;99.90;;;;;;4862664;29;20041;-85
2023/04/30 02:25:11;;;;;;;11.00;4.97;;;4.70;99.90;;;;;;4862387;29;20105;-86
2023/04/30 02:27:38;;;;;;;11.40;4.30;;;4.50;99.90;;;;;;4861950;29;20110;-85
2023/04/30 02:30:05;;;;;;;7.78;4.30;;;4.50;99.90;;;;;;4862370;29;20045;-86
2023/04/30 02:32:32;;;;;;;10.73;4.10;;;4.50;99.90;;;;;;4862068;29;20132;-86
2023/04/30 02:34:59;;;;;;;7.65;4.63;;;4.50;99.90;;;;;;4862559;29;20132;-86
2023/04/30 02:37:25;;;;;;;9.05;4.00;;;4.40;99.90;;;;;;4861858;29;20045;-86
2023/04/30 02:39:53;;;;;;;11.25;4.75;;;4.40;99.90;;;;;;4877114;29;20049;-86
2023/04/30 02:42:19;;;;;;;10.20;4.57;;;4.70;99.90;;;;;;4877160;29;20113;-86
2023/04/30 02:44:46;;;;;;;8.98;4.30;;;4.40;99.90;;;;;;4862182;29;20132;-86
2023/04/30 02:47:13;;;;;;;9.73;4.43;;;4.30;99.90;;;;;;4861823;29;20049;-86
2023/04/30 02:49:39;;;;;;;13.85;4.60;;;4.20;99.90;;;;;;4858856;29;20057;-86
2023/04/30 02:52:08;;;;;;;9.38;4.40;;;4.30;99.90;;;;;;4859092;29;20132;-86
2023/04/30 02:54:35;;;;;;;8.60;4.72;;;4.70;99.90;;;;;;4859628;29;20042;-85
2023/04/30 02:57:02;;;;;;;8.15;4.50;;;4.70;99.90;;;;;;4859085;29;20637;-85
2023/04/30 02:59:29;;;;;;;7.75;4.20;;;4.20;99.90;;;;;;4873696;29;20124;-86
2023/04/30 03:01:56;;;;;;;10.32;4.40;;;4.20;99.90;;;;;;4873809;29;20605;-86
2023/04/30 03:04:22;;;;;;;8.93;4.50;;;4.30;99.90;;;;;;4843284;29;20045;-85
2023/04/30 03:06:49;;;;;;;8.13;4.78;;;4.20;99.90;;;;;;4843874;29;20042;-86
2023/04/30 03:09:16;;;;;;;9.57;4.72;;;4.20;99.90;;;;;;4845158;29;20044;-87
2023/04/30 03:11:43;;;;;;;8.02;4.30;;;4.20;99.90;;;;;;4861866;29;20121;-86
2023/04/30 03:14:10;;;;;;;7.43;4.13;;;4.20;99.90;;;;;;4862244;29;20049;-87
2023/04/30 03:16:36;;;;;;;7.93;4.28;;;4.20;99.90;;;;;;4876662;29;20049;-86
2023/04/30 03:19:03;;;;;;;7.90;4.53;;;4.10;99.90;;;;;;4862017;29;20049;-86
2023/04/30 03:21:30;;;;;;;8.00;4.07;;;4.10;99.90;;;;;;4878365;29;20056;-86
2023/04/30 03:23:57;;;;;;;9.43;4.57;;;4.10;99.90;;;;;;4865130;29;20064;-86
2023/04/30 03:26:23;;;;;;;8.93;4.18;;;4.70;99.90;;;;;;4865163;29;20088;-86
2023/04/30 03:28:50;;;;;;;8.75;4.15;;;4.10;99.90;;;;;;4865239;29;20109;-86
2023/04/30 03:31:17;;;;;;;10.35;3.97;;;4.00;99.90;;;;;;4864846;29;20491;-85
2023/04/30 03:33:43;;;;;;;10.18;4.22;;;4.00;99.90;;;;;;4862280;29;20507;-86
2023/04/30 03:36:10;;;;;;;7.05;4.07;;;4.00;99.90;;;;;;4847214;29;20046;-86
2023/04/30 03:38:37;;;;;;;7.18;3.92;;;4.00;99.90;;;;;;4861593;29;20054;-86
2023/04/30 03:41:04;;;;;;;7.40;4.05;;;4.00;99.90;;;;;;4861876;29;20050;-86
2023/04/30 03:43:30;;;;;;;8.50;4.32;;;4.00;99.90;;;;;;4861433;29;20064;-86
2023/04/30 03:45:57;;;;;;;9.98;4.40;;;4.00;99.90;;;;;;4846155;29;20049;-86
2023/04/30 03:48:24;;;;;;;11.95;4.43;;;4.40;99.90;;;;;;4876151;29;20050;-85
2023/04/30 03:50:50;;;;;;;8.60;4.32;;;4.00;99.90;;;;;;4861493;29;20407;-86
2023/04/30 03:53:17;;;;;;;8.02;4.40;;;4.00;99.90;;;;;;4865617;29;20038;-86
2023/04/30 03:55:44;;;;;;;9.60;3.90;;;3.90;99.90;;;;;;4891347;29;20045;-86
2023/04/30 03:58:11;;;;;;;8.43;3.75;;;3.90;99.90;;;;;;4864844;29;20061;-86
2023/04/30 04:00:40;;;;;;;11.52;4.22;;;4.00;99.90;;;;;;4879869;29;20132;-86
2023/04/30 04:03:07;;;;;;;10.90;4.18;;;3.90;99.90;;;;;;4879430;29;20046;-86
2023/04/30 04:05:33;;;;;;;11.43;4.00;;;3.90;99.90;;;;;;4879399;29;20867;-86
2023/04/30 04:08:00;;;;;;;7.00;4.05;;;4.20;99.90;;;;;;4849272;29;20085;-86
2023/04/30 04:10:27;;;;;;;8.38;3.95;;;3.90;99.90;;;;;;4864105;29;20041;-86
2023/04/30 04:12:54;;;;;;;10.57;4.18;;;3.90;99.90;;;;;;4864119;29;20053;-86
2023/04/30 04:15:21;;;;;;;11.75;4.18;;;3.80;99.90;;;;;;4864203;29;20045;-86
2023/04/30 04:17:47;;;;;;;8.18;3.67;;;3.80;99.90;;;;;;4864447;29;20083;-86
2023/04/30 04:20:14;;;;;;;7.03;4.18;;;3.80;99.90;;;;;;4864359;29;20045;-87
2023/04/30 04:22:41;;;;;;;9.32;3.97;;;3.80;99.90;;;;;;4879292;29;20061;-86
2023/04/30 04:25:08;;;;;;;8.13;4.13;;;3.80;99.90;;;;;;4864348;29;20057;-86
2023/04/30 04:27:35;;;;;;;7.00;3.92;;;3.80;99.90;;;;;;4863908;29;20042;-86
2023/04/30 04:30:02;;;;;;;8.13;4.18;;;3.80;99.90;;;;;;4864066;29;20048;-86
2023/04/30 04:32:31;;;;;;;9.30;4.10;;;3.80;99.90;;;;;;4878137;29;20132;-86
2023/04/30 04:34:58;;;;;;;9.52;4.30;;;3.90;99.90;;;;;;4849706;29;20124;-86
2023/04/30 04:37:24;;;;;;;8.85;4.60;;;3.80;99.90;;;;;;4848537;29;20132;-85
2023/04/30 04:39:51;;;;;;;8.68;4.07;;;3.90;99.90;;;;;;4863958;29;20045;-85
2023/04/30 04:42:19;;;;;;;9.57;4.50;;;3.90;99.90;;;;;;4848893;29;20042;-86
2023/04/30 04:44:46;;;;;;;11.80;4.72;;;3.90;99.90;;;;;;4879124;29;20459;-85
2023/04/30 04:47:12;;;;;;;9.57;4.40;;;3.90;99.90;;;;;;4863499;29;20144;-86
2023/04/30 04:49:39;;;;;;;9.23;4.70;;;3.90;99.90;;;;;;4863518;29;20049;-85
2023/04/30 04:52:06;;;;;;;11.95;4.60;;;4.00;99.90;;;;;;4864204;29;20045;-86
2023/04/30 04:54:33;;;;;;;8.85;4.43;;;4.00;99.90;;;;;;4860176;29;20053;-85
2023/04/30 04:57:00;;;;;;;11.30;4.35;;;4.00;99.90;;;;;;4845569;29;20042;-86
2023/04/30 04:59:26;;;;;;;9.80;4.40;;;4.00;99.90;;;;;;4860313;29;20056;-84
2023/04/30 05:01:53;;;;;;;8.00;4.47;;;4.10;99.90;;;;;;4845579;29;20491;-85
2023/04/30 05:04:20;;;;;;;7.82;4.35;;;4.10;99.90;;;;;;4868552;29;20761;-86
2023/04/30 05:06:47;;;;;;;11.05;4.70;;;4.50;99.90;;;;;;4859695;29;20052;-86
2023/04/30 05:09:14;;;;;;;8.13;4.20;;;4.20;99.90;;;;;;4859999;29;20042;-86
2023/04/30 05:11:42;;;;;;;7.85;4.15;;;4.20;99.90;;;;;;4859696;29;20086;-86
2023/04/30 05:14:09;;;;;;;9.68;4.80;;;4.30;99.90;;;;;;4878436;29;20513;-86
2023/04/30 05:16:35;;;;;;;8.10;3.95;;;4.40;99.90;;;;;;4878228;29;20068;-86
2023/04/30 05:19:02;;;;;;;6.85;3.58;;;4.50;99.90;;;;;;4863406;29;20053;-86
2023/04/30 05:21:30;;;;;;;11.77;4.13;;;4.60;99.90;;;;;;4863278;29;20051;-86
2023/04/30 05:23:57;;;;;;;12.40;3.90;;;4.70;99.90;;;;;;4878518;29;20128;-86
2023/04/30 05:26:24;;;;;;;13.15;3.67;;;4.90;99.90;;;;;;4878073;29;20125;-86
2023/04/30 05:28:51;;;;;;;9.35;3.40;;;5.00;99.90;;;;;;4862748;29;20144;-86
2023/04/30 05:31:18;;;;;;;11.95;3.70;;;5.10;99.90;;;;;;4863487;29;20155;-86
2023/04/30 05:33:44;;;;;;;11.18;3.35;;;5.10;99.90;;;;;;4862669;29;20136;-86
2023/04/30 05:36:11;;;;;;;9.15;3.20;;;5.30;99.90;;;;;;4859486;29;20077;-85
2023/04/30 05:38:38;;;;;;;6.40;3.17;;;5.40;99.90;;;;;;4844857;29;20492;-86
2023/04/30 05:41:04;;;;;;;9.82;3.50;;;5.50;99.90;;;;;;4859759;29;20046;-86
2023/04/30 05:43:31;;;;;;;9.52;3.30;;;5.60;99.90;;;;;;4844205;29;20046;-85
2023/04/30 05:45:58;;;;;;;12.30;3.60;;;5.80;99.90;;;;;;4844332;29;20129;-86
2023/04/30 05:48:26;;;;;;;7.50;3.50;;;5.90;99.90;;;;;;4859297;29;20042;-86
2023/04/30 05:50:53;;;;;;;11.38;3.20;;;6.00;99.90;;;;;;4859054;29;20048;-85
2023/04/30 05:53:19;;;;;;;12.52;3.40;;;6.10;99.90;;;;;;4859641;29;20475;-86
2023/04/30 05:55:46;;;;;;;12.77;3.03;;;6.10;99.90;;;;;;4874159;29;20411;-86
2023/04/30 05:58:13;;;;;;;11.82;3.28;;;6.30;99.90;;;;;;4859590;29;20053;-86
2023/04/30 06:00:39;;;;;;;9.23;3.03;;;6.30;99.90;;;;;;4852835;29;20041;-86
2023/04/30 06:03:07;;;;;;;8.40;3.42;;;6.40;99.90;;;;;;4862554;29;20467;-86
2023/04/30 06:05:33;;;;;;;14.65;3.08;;;6.50;99.90;;;;;;4862554;29;20494;-86
2023/04/30 06:08:00;;;;;;;11.80;3.17;;;6.50;99.90;;;;;;4862331;29;20054;-86
2023/04/30 06:10:27;;;;;;;9.20;2.80;;;6.50;99.90;;;;;;4874397;29;20090;-86
2023/04/30 06:12:53;;;;;;;13.20;3.55;;;6.50;99.90;;;;;;4858819;29;20069;-86
2023/04/30 06:15:21;;;;;;;12.88;2.92;;;6.50;99.90;;;;;;4844008;29;20140;-86
2023/04/30 06:17:48;;;;;;;6.25;3.00;;;6.50;99.90;;;;;;4859018;29;20179;-86
2023/04/30 06:20:14;;;;;;;10.45;3.72;;;6.60;99.90;;;;;;4862681;29;20128;-87
2023/04/30 06:22:41;;;;;;;8.77;2.50;;;6.60;99.90;;;;;;4846671;29;20080;-86
2023/04/30 06:25:08;;;;;;;9.40;3.22;;;6.60;99.90;;;;;;4877764;29;20388;-86
2023/04/30 06:27:35;;;;;;;9.43;3.00;;;6.70;99.90;;;;;;4862642;29;20041;-86
2023/04/30 06:30:02;;;;;;;6.60;2.50;;;6.80;99.90;;;;;;4861902;29;20505;-86
2023/04/30 06:32:28;;;;;;;7.20;2.83;;;6.80;99.90;;;;;;4862167;29;20041;-86
2023/04/30 06:34:55;;;;;;;10.38;2.63;;;6.90;99.90;;;;;;4862478;29;20089;-86
2023/04/30 06:37:22;;;;;;;6.55;2.90;;;6.90;99.90;;;;;;4877780;29;20053;-86
2023/04/30 06:39:50;;;;;;;11.38;3.35;;;7.00;99.90;;;;;;4877138;29;20042;-85
2023/04/30 06:42:17;;;;;;;8.02;2.28;;;7.10;99.90;;;;;;4877743;29;20048;-86
2023/04/30 06:44:44;;;;;;;6.88;2.75;;;7.10;99.90;;;;;;4845363;29;20038;-86
2023/04/30 06:47:11;;;;;;;7.43;2.60;;;7.20;99.90;;;;;;4858770;29;20075;-86
2023/04/30 06:49:37;;;;;;;6.88;2.47;;;7.30;99.90;;;;;;4858711;29;20042;-86
2023/04/30 06:52:04;;;;;;;6.35;2.20;;;7.40;99.90;;;;;;4858628;29;20054;-86
2023/04/30 06:54:31;;;;;;;12.25;2.83;;;7.50;99.90;;;;;;4876924;29;20054;-86
2023/04/30 06:56:57;;;;;;;7.18;2.15;;;7.60;99.90;;;;;;4866797;29;20053;-86
2023/04/30 06:59:24;;;;;;;5.03;2.08;;;7.70;99.90;;;;;;4868046;29;20045;-86
2023/04/30 07:01:51;;;;;;;7.28;2.30;;;7.80;99.90;;;;;;4870065;29;20060;-86
2023/04/30 07:04:18;;;;;;;11.52;2.70;;;7.90;99.90;;;;;;4871451;29;20085;-86
2023/04/30 07:06:45;;;;;;;12.48;2.58;;;8.10;99.90;;;;;;4864669;29;20046;-86
2023/04/30 07:09:13;;;;;;;8.55;2.47;;;8.30;99.90;;;;;;4849292;29;20053;-86
2023/04/30 07:11:40;;;;;;;9.55;2.55;;;8.40;99.90;;;;;;4849788;29;20064;-86
2023/04/30 07:14:07;;;;;;;7.75;2.63;;;8.60;99.90;;;;;;4850404;29;20045;-86
2023/04/30 07:16:34;;;;;;;15.48;2.85;;;8.70;99.90;;;;;;4882973;29;20049;-86
2023/04/30 07:19:01;;;;;;;6.32;1.88;;;8.80;99.90;;;;;;4867723;29;20053;-86
2023/04/30 07:21:28;;;;;;;6.43;2.10;;;8.80;99.90;;;;;;4867777;29;20499;-86
2023/04/30 07:23:54;;;;;;;6.85;2.17;;;8.90;99.90;;;;;;4867648;29;20048;-86
2023/04/30 07:26:23;;;;;;;7.32;1.90;;;9.00;99.90;;;;;;4849178;29;20431;-86
2023/04/30 07:28:50;;;;;;;11.68;2.10;;;9.10;99.90;;;;;;4852066;29;20041;-87
2023/04/30 07:31:18;;;;;;;9.60;2.30;;;9.20;99.90;;;;;;4856392;29;20042;-88
2023/04/30 07:33:44;;;;;;;9.13;2.30;;;9.20;99.90;;;;;;4849391;29;20046;-87
2023/04/30 07:36:11;;;;;;;8.25;2.60;;;9.30;99.90;;;;;;4860032;29;20061;-87
2023/04/30 07:38:38;;;;;;;8.68;2.30;;;9.40;99.90;;;;;;4868130;29;20499;-87
2023/04/30 07:41:05;;;;;;;9.38;2.55;;;9.40;99.90;;;;;;4867556;29;20132;-86
2023/04/30 07:43:31;;;;;;;9.50;2.75;;;9.50;99.90;;;;;;4868126;29;20053;-87
2023/04/30 07:45:58;;;;;;;8.60;2.40;;;9.60;99.90;;;;;;4864536;29;20121;-87
2023/04/30 07:48:25;;;;;;;6.22;2.30;;;9.70;99.90;;;;;;4852421;29;20045;-86
2023/04/30 07:50:51;;;;;;;6.78;2.25;;;9.70;99.90;;;;;;4866730;29;20042;-86
2023/04/30 07:53:18;;;;;;;10.30;2.28;;;9.80;99.90;;;;;;4867183;29;20045;-85
2023/04/30 07:55:45;;;;;;;7.57;2.47;;;9.80;99.90;;;;;;4867072;29;20073;-86
2023/04/30 07:58:12;;;;;;;6.43;2.13;;;9.70;99.90;;;;;;4863362;29;20037;-86
2023/04/30 08:00:38;;;;;;;12.10;2.90;;;9.60;99.90;;;;;;4864025;29;20419;-86
2023/04/30 08:03:05;;;;;;;7.43;2.60;;;9.70;99.90;;;;;;4865068;29;20533;-87
2023/04/30 08:05:32;;;;;;;10.90;2.85;;;9.70;99.90;;;;;;4864817;29;20042;-88
2023/04/30 08:07:59;;;;;;;10.38;2.70;;;9.80;99.90;;;;;;4847177;29;20061;-88
2023/04/30 08:10:27;;;;;;;10.02;2.80;;;10.00;99.90;;;;;;4851455;29;20033;-87
2023/04/30 08:12:53;;;;;;;7.93;2.33;;;10.00;99.90;;;;;;4886805;29;20059;-87
2023/04/30 08:15:20;;;;;;;6.55;2.10;;;10.10;99.90;;;;;;4868703;29;20037;-87
2023/04/30 08:17:50;;;;;;;11.60;2.63;;;10.20;99.90;;;;;;4869796;29;20044;-87
2023/04/30 08:20:17;;;;;;;9.77;2.83;;;10.30;99.90;;;;;;4864348;29;20078;-87
2023/04/30 08:22:45;;;;;;;5.63;2.40;;;10.40;99.90;;;;;;4881010;29;20409;-89
2023/04/30 08:25:12;;;;;;;7.30;2.35;;;10.50;99.90;;;;;;4882846;29;20049;-89
2023/04/30 08:27:39;;;;;;;6.47;2.47;;;10.60;99.90;;;;;;4883086;29;20065;-88
2023/04/30 08:30:06;;;;;;;9.30;2.70;;;10.60;99.90;;;;;;4867463;29;20094;-88
2023/04/30 08:32:36;;;;;;;8.02;2.97;;;10.70;99.90;;;;;;4861866;29;20484;-87
2023/04/30 08:35:04;;;;;;;9.98;3.00;;;10.80;99.90;;;;;;4861233;29;20049;-88
2023/04/30 08:37:31;;;;;;;7.28;2.35;;;10.90;99.90;;;;;;4876679;29;20056;-87
2023/04/30 08:39:58;;;;;;;8.55;2.33;;;11.00;99.90;;;;;;4891814;29;20045;-85
2023/04/30 08:42:30;;;;;;;10.70;2.58;;;11.10;99.90;;;;;;4872973;29;20052;-85
2023/04/30 08:44:59;;;;;;;10.35;2.22;;;11.20;99.90;;;;;;4878613;29;20096;-85
2023/04/30 08:47:27;;;;;;;8.27;2.70;;;11.20;99.90;;;;;;4863614;29;20050;-85
2023/04/30 08:49:54;;;;;;;7.88;2.20;;;11.30;99.90;;;;;;4862749;29;20100;-84
2023/04/30 08:52:21;;;;;;;6.80;1.80;;;11.30;99.90;;;;;;4863049;29;20041;-87
2023/04/30 08:54:51;;;;;;;8.88;2.60;;;11.30;99.90;;;;;;4879002;29;20177;-87
2023/04/30 08:57:18;;;;;;;8.43;2.35;;;11.40;99.90;;;;;;4878765;29;20042;-86
2023/04/30 08:59:47;;;;;;;8.02;2.40;;;11.50;99.90;;;;;;4863992;29;20037;-87
2023/04/30 09:02:14;;;;;;;9.93;2.38;;;11.60;99.90;;;;;;4864372;29;20122;-88
2023/04/30 09:04:41;;;;;;;8.45;2.08;;;11.70;99.90;;;;;;4861855;29;20835;-88
2023/04/30 09:07:10;;;;;;;8.60;2.00;;;11.80;99.90;;;;;;4848294;29;20073;-89
2023/04/30 09:09:38;;;;;;;8.10;2.08;;;12.00;99.90;;;;;;4864204;29;20113;-88
2023/04/30 09:12:17;;;;;;;6.30;2.28;;;12.10;99.90;;;;;;4863683;29;20045;-89
2023/04/30 09:15:08;;;;;;;9.77;2.47;;;12.10;99.90;;;;;;4879091;29;20046;-88
2023/04/30 09:17:35;;;;;;;9.68;2.17;;;12.20;99.90;;;;;;4872004;29;20468;-89
2023/04/30 09:20:12;;;;;;;9.98;2.47;;;12.20;99.90;;;;;;4863286;29;20049;-90
2023/04/30 09:22:41;;;;;;;7.97;2.03;;;12.30;99.90;;;;;;4864245;29;20133;-88
2023/04/30 09:25:09;;;;;;;6.38;1.83;;;12.30;99.90;;;;;;4878882;29;20415;-89
2023/04/30 09:27:35;;;;;;;9.50;2.45;;;12.20;99.90;;;;;;4878852;29;20109;-89
2023/04/30 09:30:14;;;;;;;;;;;;;;;;;;;;;
2023/04/30 09:32:56;;;;;;;5.32;2.35;;;12.90;99.90;;;;;;4894422;29;20545;-90
2023/04/30 09:35:30;;;;;;;8.73;2.67;;;12.40;99.90;;;;;;4864416;29;20052;-91
2023/04/30 09:38:00;;;;;;;5.47;2.05;;;12.40;99.90;;;;;;4864100;29;20455;-90
2023/04/30 09:40:36;;;;;;;8.25;2.47;;;12.50;99.90;;;;;;4879261;29;20109;-90
2023/04/30 09:43:04;;;;;;;6.18;2.17;;;12.70;99.90;;;;;;4860000;29;20575;-89
2023/04/30 09:45:46;;;;;;;5.25;2.13;;;12.70;99.90;;;;;;4860964;29;20049;-91
2023/04/30 09:48:15;;;;;;;10.07;2.38;;;12.70;99.90;;;;;;4865503;29;20172;-90
2023/04/30 09:50:43;;;;;;;9.07;2.35;;;12.80;99.90;;;;;;4878212;29;20387;-90
2023/04/30 09:53:13;;;;;;;7.93;2.60;;;13.00;99.90;;;;;;4860229;29;20073;-90
2023/04/30 09:55:44;;;;;;;8.70;2.30;;;13.00;99.90;;;;;;4875451;29;20129;-90
2023/04/30 09:58:12;;;;;;;9.32;2.55;;;13.00;99.90;;;;;;4879682;29;20101;-90
2023/04/30 10:00:39;;;;;;;8.90;2.15;;;13.00;99.90;;;;;;4859989;29;20073;-90
2023/04/30 10:03:07;;;;;;;12.98;2.17;;;13.00;99.90;;;;;;4844372;29;20089;-87
2023/04/30 10:05:41;;;;;;;8.48;2.50;;;13.10;99.90;;;;;;4844556;29;20081;-87
2023/04/30 10:08:20;;;;;;;5.63;1.98;;;13.20;99.90;;;;;;4859822;29;20488;-87
2023/04/30 10:10:54;;;;;;;9.20;2.10;;;13.20;99.90;;;;;;4878094;29;20101;-87
2023/04/30 10:13:25;;;;;;;6.20;2.08;;;13.30;99.90;;;;;;4877544;29;20940;-88
2023/04/30 10:15:57;;;;;;;7.13;2.00;;;13.40;99.90;;;;;;4862923;29;20852;-87
2023/04/30 10:18:32;;;;;;;6.75;2.30;;;13.60;99.90;;;;;;4877419;29;20099;-87
2023/04/30 10:21:02;;;;;;;6.65;2.08;;;13.60;99.90;;;;;;4877299;29;20068;-86
2023/04/30 10:23:29;;;;;;;7.28;2.33;;;13.70;99.90;;;;;;4877691;29;20052;-87
2023/04/30 10:25:57;;;;;;;6.40;2.30;;;13.70;99.90;;;;;;4862594;29;20487;-87
2023/04/30 10:28:24;;;;;;;7.30;2.30;;;13.70;99.90;;;;;;4862470;29;20053;-87
2023/04/30 10:30:51;;;;;;;6.88;2.20;;;13.80;99.90;;;;;;4847074;29;20045;-86
2023/04/30 10:33:48;;;;;;;7.20;2.55;;;13.80;99.90;;;;;;4862158;29;20583;-87
2023/04/30 10:36:25;;;;;;;6.10;2.28;;;13.80;99.90;;;;;;4853292;29;20056;-86
2023/04/30 10:38:52;;;;;;;6.60;1.90;;;13.60;99.90;;;;;;4892820;29;20038;-86
2023/04/30 10:41:19;;;;;;;7.07;2.45;;;13.50;99.90;;;;;;4861984;29;20046;-86
2023/04/30 10:43:48;;;;;;;10.05;1.85;;;13.60;99.90;;;;;;4862239;29;20088;-86
2023/04/30 10:46:22;;;;;;;9.68;2.13;;;13.60;99.90;;;;;;4861890;29;20415;-87
2023/04/30 10:48:53;;;;;;;10.13;2.00;;;13.80;99.90;;;;;;4862060;29;20049;-86
2023/04/30 10:51:21;;;;;;;6.95;2.10;;;13.90;99.90;;;;;;4873837;29;20046;-86
2023/04/30 10:53:52;;;;;;;7.53;2.13;;;13.80;99.90;;;;;;4859324;29;20038;-87
2023/04/30 10:56:33;;;;;;;5.80;2.40;;;13.80;99.90;;;;;;4873436;29;20047;-86
2023/04/30 10:59:01;;;;;;;8.93;2.42;;;13.80;99.90;;;;;;4858807;29;20627;-86
2023/04/30 11:01:28;;;;;;;6.22;2.00;;;13.80;99.90;;;;;;4855387;29;20468;-86
2023/04/30 11:04:09;;;;;;;6.20;1.92;;;13.80;99.90;;;;;;4892174;29;20049;-86
2023/04/30 11:06:53;;;;;;;6.65;2.25;;;13.90;99.90;;;;;;4877270;29;20085;-86
2023/04/30 11:09:36;;;;;;;8.35;2.05;;;13.90;99.90;;;;;;4876631;29;20096;-86
2023/04/30 11:12:08;;;;;;;7.90;2.47;;;14.00;99.90;;;;;;4891875;29;20057;-86
2023/04/30 11:14:43;;;;;;;5.18;2.13;;;14.10;99.90;;;;;;4866046;29;20106;-86
2023/04/30 11:17:21;;;;;;;6.10;2.10;;;14.30;99.90;;;;;;4858718;29;20034;-86
2023/04/30 11:19:50;;;;;;;5.85;1.73;;;14.40;99.90;;;;;;4843474;29;20045;-86
2023/04/30 11:22:19;;;;;;;5.95;2.00;;;14.50;99.90;;;;;;4867922;29;20101;-86
2023/04/30 11:24:52;;;;;;;5.25;1.73;;;14.60;99.90;;;;;;4862438;29;20049;-87
2023/04/30 11:27:27;;;;;;;6.35;2.00;;;14.60;99.90;;;;;;4876845;29;20565;-86
2023/04/30 11:29:55;;;;;;;4.28;1.90;;;14.70;99.90;;;;;;4862518;29;20057;-87
2023/04/30 11:32:24;;;;;;;5.80;2.35;;;14.80;99.90;;;;;;4873262;29;20054;-85
2023/04/30 11:34:52;;;;;;;3.78;1.73;;;14.90;99.90;;;;;;4859176;29;20081;-86
2023/04/30 11:37:42;;;;;;;6.35;2.10;;;14.90;99.90;;;;;;4873180;29;20042;-82
2023/04/30 11:40:10;;;;;;;4.13;1.90;;;14.80;99.90;;;;;;4845529;29;20050;-82
2023/04/30 11:42:38;;;;;;;6.95;1.80;;;14.90;99.90;;;;;;4878333;29;20140;-86
2023/04/30 11:45:10;;;;;;;8.35;2.45;;;14.90;99.90;;;;;;4879604;29;20087;-81
2023/04/30 11:47:55;;;;;;;5.07;2.25;;;14.90;99.90;;;;;;4879594;29;20052;-80
2023/04/30 11:50:28;;;;;;;7.22;2.42;;;14.80;99.90;;;;;;4894807;29;20049;-81
2023/04/30 11:52:56;;;;;;;4.80;2.20;;;14.80;99.90;;;;;;4879633;29;20136;-81
2023/04/30 11:55:24;;;;;;;6.63;2.10;;;14.90;99.90;;;;;;4879298;29;20041;-81
2023/04/30 11:57:54;;;;;;;4.80;1.92;;;15.00;99.90;;;;;;4879761;29;20989;-81
2023/04/30 12:00:28;;;;;;;6.50;1.90;;;15.10;99.90;;;;;;4879933;29;20049;-81
2023/04/30 12:02:55;;;;;;;11.38;2.30;;;15.20;99.90;;;;;;4864081;29;20049;-80
2023/04/30 12:05:24;;;;;;;6.88;2.08;;;15.40;99.90;;;;;;4878951;29;20057;-80
2023/04/30 12:07:56;;;;;;;4.90;1.83;;;15.40;99.90;;;;;;4879437;29;20061;-81
2023/04/30 12:10:26;;;;;;;7.50;2.38;;;15.30;99.90;;;;;;4879030;29;20490;-82
2023/04/30 12:12:54;;;;;;;4.75;2.38;;;15.30;99.90;;;;;;4846172;29;20058;-81
2023/04/30 12:15:25;;;;;;;7.57;2.55;;;15.40;99.90;;;;;;4845239;29;20137;-82
2023/04/30 12:17:54;;;;;;;5.90;2.28;;;15.40;99.90;;;;;;4860736;29;20112;-82
2023/04/30 12:20:22;;;;;;;8.23;1.98;;;15.40;99.90;;;;;;4876007;29;20083;-82
2023/04/30 12:22:49;;;;;;;10.20;2.40;;;15.40;99.90;;;;;;4845430;29;20045;-82
2023/04/30 12:25:18;;;;;;;4.70;2.10;;;15.40;99.90;;;;;;4845277;29;20495;-81
2023/04/30 12:27:46;;;;;;;7.15;2.35;;;15.40;99.90;;;;;;4860452;29;20054;-82
2023/04/30 12:30:14;;;;;;;7.65;2.50;;;15.40;99.90;;;;;;4845684;29;20046;-82
2023/04/30 12:32:45;;;;;;;8.35;2.38;;;15.40;99.90;;;;;;4867700;29;20499;-82
2023/04/30 12:35:18;;;;;;;7.45;2.50;;;15.50;99.90;;;;;;4879170;29;20077;-82
2023/04/30 12:37:50;;;;;;;6.10;2.08;;;15.60;99.90;;;;;;4879034;29;20049;-82
2023/04/30 12:40:19;;;;;;;4.18;1.90;;;15.60;99.90;;;;;;4878594;29;20153;-82
2023/04/30 12:42:46;;;;;;;6.05;2.30;;;15.60;99.90;;;;;;4860359;29;20049;-82
2023/04/30 12:45:33;;;;;;;7.57;2.30;;;15.50;99.90;;;;;;4860219;29;20052;-82
2023/04/30 12:48:00;;;;;;;6.88;2.15;;;15.50;99.90;;;;;;4875736;29;20046;-82
2023/04/30 12:50:27;;;;;;;5.20;2.20;;;15.60;99.90;;;;;;4875278;29;20057;-82
2023/04/30 12:52:53;;;;;;;7.43;2.47;;;15.60;99.90;;;;;;4847731;29;20523;-82
2023/04/30 12:55:20;;;;;;;5.10;2.40;;;15.60;99.90;;;;;;4877917;29;20153;-82
2023/04/30 12:58:08;;;;;;;8.35;2.20;;;15.50;99.90;;;;;;4878922;29;20045;-82
2023/04/30 13:00:48;;;;;;;9.82;2.03;;;15.60;99.90;;;;;;4863295;29;20521;-82
2023/04/30 13:03:20;;;;;;;5.20;2.15;;;15.70;99.90;;;;;;4878319;29;20053;-82